createdAt,value
2019-05-07T00:00:22.628Z,19.50
2019-05-07T00:01:23.314Z,19.20
2019-05-07T00:02:22.673Z,20.10
2019-05-07T00:03:22.547Z,20.90
2019-05-07T00:04:22.692Z,21.10
2019-05-07T00:05:22.896Z,21.60
2019-05-07T00:06:23.057Z,20.30
2019-05-07T00:07:22.523Z,22.00
2019-05-07T00:08:23.007Z,20.50
2019-05-07T00:09:23.294Z,21.30
2019-05-07T00:10:24.872Z,21.10
2019-05-07T00:11:22.509Z,20.40
2019-05-07T00:12:23.107Z,20.50
2019-05-07T00:13:22.820Z,21.00
2019-05-07T00:14:23.079Z,20.50
2019-05-07T00:15:23.040Z,19.80
2019-05-07T00:16:22.543Z,20.40
2019-05-07T00:17:22.864Z,19.40
2019-05-07T00:18:22.965Z,20.70
2019-05-07T00:19:23.095Z,19.40
2019-05-07T00:20:23.105Z,19.90
2019-05-07T00:21:23.341Z,20.50
2019-05-07T00:22:22.863Z,21.10
2019-05-07T00:23:23.172Z,20.50
2019-05-07T00:24:22.389Z,21.20
2019-05-07T00:25:22.858Z,20.10
2019-05-07T00:26:22.657Z,20.30
2019-05-07T00:27:22.720Z,20.40
2019-05-07T00:28:22.994Z,19.90
2019-05-07T00:29:22.525Z,21.60
2019-05-07T00:30:22.411Z,20.20
2019-05-07T00:31:23.227Z,19.80
2019-05-07T00:32:22.277Z,20.60
2019-05-07T00:33:22.724Z,20.10
2019-05-07T00:34:22.054Z,19.70
2019-05-07T00:35:22.550Z,19.60
2019-05-07T00:36:23.090Z,19.90
2019-05-07T00:37:22.069Z,19.80
2019-05-07T00:38:22.417Z,20.50
2019-05-07T00:39:22.014Z,20.70
2019-05-07T00:40:22.572Z,21.60
2019-05-07T00:41:22.947Z,19.80
2019-05-07T00:42:22.172Z,20.40
2019-05-07T00:43:22.669Z,20.40
2019-05-07T00:44:22.140Z,21.70
2019-05-07T00:45:23.773Z,21.20
2019-05-07T00:46:22.602Z,20.30
2019-05-07T00:47:22.224Z,20.00
2019-05-07T00:48:23.476Z,21.70
2019-05-07T00:49:22.128Z,20.50
2019-05-07T00:50:22.509Z,19.70
2019-05-07T00:51:22.610Z,20.00
2019-05-07T00:52:22.543Z,20.10
2019-05-07T00:53:23.502Z,20.20
2019-05-07T00:54:23.037Z,20.70
2019-05-07T00:55:22.783Z,21.70
2019-05-07T00:56:22.355Z,21.90
2019-05-07T00:57:22.911Z,21.70
2019-05-07T00:58:26.275Z,20.10
2019-05-07T00:59:22.581Z,21.20
2019-05-07T01:00:22.330Z,21.10
2019-05-07T01:01:22.706Z,21.30
2019-05-07T01:02:22.403Z,20.00
2019-05-07T01:03:22.213Z,20.40
2019-05-07T01:04:22.922Z,19.70
2019-05-07T01:05:23.062Z,19.30
2019-05-07T01:06:22.766Z,21.00
2019-05-07T01:07:22.959Z,19.60
2019-05-07T01:08:22.572Z,19.30
2019-05-07T01:09:22.939Z,20.30
2019-05-07T01:10:22.274Z,19.50
2019-05-07T01:11:22.691Z,18.50
2019-05-07T01:12:22.188Z,19.40
2019-05-07T01:13:23.176Z,19.90
2019-05-07T01:14:22.860Z,20.20
2019-05-07T01:15:30.369Z,19.60
2019-05-07T01:16:22.257Z,19.70
2019-05-07T01:17:22.694Z,19.60
2019-05-07T01:18:23.043Z,19.90
2019-05-07T01:19:21.933Z,20.10
2019-05-07T01:20:22.140Z,20.00
2019-05-07T01:21:22.717Z,20.40
2019-05-07T01:22:22.199Z,20.30
2019-05-07T01:23:22.776Z,19.40
2019-05-07T01:24:23.073Z,20.20
2019-05-07T01:25:22.120Z,19.60
2019-05-07T01:26:21.887Z,19.50
2019-05-07T01:27:22.613Z,19.60
2019-05-07T01:28:22.343Z,19.50
2019-05-07T01:29:22.561Z,20.70
2019-05-07T01:30:20.545Z,19.90
2019-05-07T01:31:22.217Z,19.40
2019-05-07T01:32:22.188Z,19.90
2019-05-07T01:33:22.652Z,19.60
2019-05-07T01:34:20.457Z,20.70
2019-05-07T01:35:22.421Z,20.60
2019-05-07T01:36:22.480Z,19.40
2019-05-07T01:37:20.390Z,19.40
2019-05-07T01:38:20.363Z,20.00
2019-05-07T01:39:20.350Z,19.30
2019-05-07T01:40:20.324Z,19.50
2019-05-07T01:41:20.300Z,20.10
2019-05-07T01:42:22.176Z,18.50
2019-05-07T01:43:20.249Z,20.10
2019-05-07T01:44:22.168Z,20.30
2019-05-07T01:45:22.036Z,19.50
2019-05-07T01:46:20.174Z,19.60
2019-05-07T01:47:20.160Z,19.30
2019-05-07T01:48:20.128Z,19.40
2019-05-07T01:49:20.109Z,20.50
2019-05-07T01:50:20.083Z,19.80
2019-05-07T01:51:22.135Z,22.30
2019-05-07T01:52:20.041Z,20.80
2019-05-07T01:53:20.016Z,20.10
2019-05-07T01:54:23.496Z,19.70
2019-05-07T01:55:19.970Z,20.10
2019-05-07T01:56:19.945Z,20.60
2019-05-07T01:57:19.923Z,21.70
2019-05-07T01:58:21.999Z,21.80
2019-05-07T01:59:19.875Z,19.40
2019-05-07T02:00:19.852Z,19.80
2019-05-07T02:01:22.078Z,20.40
2019-05-07T02:02:19.805Z,19.60
2019-05-07T02:03:19.796Z,19.90
2019-05-07T02:04:19.761Z,19.50
2019-05-07T02:05:19.738Z,20.00
2019-05-07T02:06:21.922Z,19.30
2019-05-07T02:07:19.690Z,20.50
2019-05-07T02:08:21.991Z,19.70
2019-05-07T02:09:19.651Z,20.70
2019-05-07T02:10:19.621Z,21.40
2019-05-07T02:11:21.740Z,18.90
2019-05-07T02:12:19.579Z,20.10
2019-05-07T02:13:19.554Z,18.70
2019-05-07T02:14:19.529Z,19.60
2019-05-07T02:15:19.516Z,20.80
2019-05-07T02:16:19.485Z,19.90
2019-05-07T02:17:19.462Z,19.60
2019-05-07T02:18:19.442Z,20.40
2019-05-07T02:19:19.416Z,19.60
2019-05-07T02:20:19.391Z,19.20
2019-05-07T02:21:19.369Z,18.60
2019-05-07T02:22:19.345Z,19.10
2019-05-07T02:23:19.323Z,18.50
2019-05-07T02:24:19.300Z,20.10
2019-05-07T02:25:19.278Z,18.30
2019-05-07T02:26:19.254Z,19.60
2019-05-07T02:27:19.233Z,20.10
2019-05-07T02:28:19.208Z,19.10
2019-05-07T02:29:19.185Z,20.90
2019-05-07T02:30:19.162Z,19.40
2019-05-07T02:31:19.138Z,19.10
2019-05-07T02:32:19.116Z,18.40
2019-05-07T02:33:19.098Z,18.30
2019-05-07T02:34:19.076Z,18.30
2019-05-07T02:35:19.046Z,18.50
2019-05-07T02:36:19.023Z,17.80
2019-05-07T02:37:19.001Z,17.10
2019-05-07T02:38:18.984Z,17.50
2019-05-07T02:39:18.951Z,20.00
2019-05-07T02:40:18.929Z,19.90
2019-05-07T02:41:18.908Z,18.30
2019-05-07T02:42:18.883Z,19.60
2019-05-07T02:43:18.861Z,20.20
2019-05-07T02:44:18.845Z,19.30
2019-05-07T02:45:18.824Z,18.60
2019-05-07T02:46:29.339Z,20.00
2019-05-07T02:47:18.766Z,18.60
2019-05-07T02:48:18.755Z,18.80
2019-05-07T02:49:18.728Z,18.50
2019-05-07T02:50:18.698Z,19.50
2019-05-07T02:51:18.675Z,19.30
2019-05-07T02:52:18.653Z,20.60
2019-05-07T02:53:18.628Z,20.20
2019-05-07T02:54:18.608Z,18.50
2019-05-07T02:55:18.584Z,19.70
2019-05-07T02:56:18.557Z,20.00
2019-05-07T02:57:18.533Z,21.00
2019-05-07T02:58:18.512Z,18.70
2019-05-07T02:59:18.490Z,20.60
2019-05-07T03:00:19.489Z,19.60
2019-05-07T03:01:18.443Z,19.80
2019-05-07T03:02:18.418Z,21.00
2019-05-07T03:03:18.399Z,19.50
2019-05-07T03:04:18.379Z,20.80
2019-05-07T03:05:18.350Z,19.30
2019-05-07T03:06:18.324Z,19.50
2019-05-07T03:07:18.304Z,18.40
2019-05-07T03:08:18.278Z,19.50
2019-05-07T03:09:18.280Z,19.50
2019-05-07T03:10:18.234Z,19.20
2019-05-07T03:11:18.211Z,20.70
2019-05-07T03:12:18.186Z,21.40
2019-05-07T03:13:18.164Z,19.80
2019-05-07T03:14:18.140Z,20.40
2019-05-07T03:15:18.117Z,19.90
2019-05-07T03:16:35.370Z,19.90
2019-05-07T03:17:18.075Z,20.10
2019-05-07T03:18:19.073Z,20.00
2019-05-07T03:19:18.022Z,20.70
2019-05-07T03:20:18.003Z,21.30
2019-05-07T03:21:17.979Z,22.10
2019-05-07T03:22:17.959Z,20.90
2019-05-07T03:23:17.931Z,20.60
2019-05-07T03:24:17.911Z,19.90
2019-05-07T03:25:17.885Z,19.80
2019-05-07T03:26:17.872Z,20.00
2019-05-07T03:27:17.843Z,19.90
2019-05-07T03:28:17.814Z,18.80
2019-05-07T03:29:17.790Z,19.90
2019-05-07T03:30:17.785Z,20.90
2019-05-07T03:31:17.746Z,19.70
2019-05-07T03:32:17.719Z,22.00
2019-05-07T03:33:17.716Z,21.90
2019-05-07T03:34:17.715Z,22.10
2019-05-07T03:35:17.654Z,21.50
2019-05-07T03:36:17.845Z,20.50
2019-05-07T03:37:17.605Z,20.70
2019-05-07T03:38:17.579Z,20.60
2019-05-07T03:39:17.558Z,20.20
2019-05-07T03:40:17.533Z,19.70
2019-05-07T03:41:17.511Z,20.00
2019-05-07T03:42:17.507Z,19.00
2019-05-07T03:43:17.465Z,20.80
2019-05-07T03:44:17.441Z,21.40
2019-05-07T03:45:17.421Z,19.60
2019-05-07T03:46:17.395Z,19.90
2019-05-07T03:47:17.411Z,18.20
2019-05-07T03:48:17.349Z,20.00
2019-05-07T03:49:17.337Z,21.10
2019-05-07T03:50:17.301Z,19.70
2019-05-07T03:51:17.276Z,21.00
2019-05-07T03:52:17.257Z,18.90
2019-05-07T03:53:17.234Z,20.90
2019-05-07T03:54:17.205Z,20.70
2019-05-07T03:55:17.186Z,21.40
2019-05-07T03:56:17.164Z,19.40
2019-05-07T03:57:17.138Z,19.30
2019-05-07T03:58:17.112Z,18.40
2019-05-07T03:59:17.093Z,19.20
2019-05-07T04:00:17.080Z,17.20
2019-05-07T04:01:17.048Z,17.80
2019-05-07T04:02:17.019Z,16.20
2019-05-07T04:03:19.730Z,17.00
2019-05-07T04:04:16.972Z,16.40
2019-05-07T04:05:16.953Z,14.60
2019-05-07T04:06:16.934Z,14.90
2019-05-07T04:07:16.904Z,15.60
2019-05-07T04:08:16.878Z,15.60
2019-05-07T04:09:16.887Z,15.50
2019-05-07T04:10:16.842Z,15.70
2019-05-07T04:11:16.829Z,16.40
2019-05-07T04:12:16.794Z,17.00
2019-05-07T04:13:16.767Z,17.20
2019-05-07T04:14:16.740Z,18.00
2019-05-07T04:15:19.436Z,16.90
2019-05-07T04:16:16.693Z,17.70
2019-05-07T04:17:22.241Z,18.30
2019-05-07T04:18:16.644Z,18.50
2019-05-07T04:19:16.623Z,18.40
2019-05-07T04:20:16.602Z,19.00
2019-05-07T04:21:16.579Z,17.50
2019-05-07T04:22:16.555Z,18.20
2019-05-07T04:23:16.530Z,19.50
2019-05-07T04:24:16.506Z,18.50
2019-05-07T04:25:16.487Z,19.00
2019-05-07T04:26:16.477Z,19.90
2019-05-07T04:27:16.434Z,19.70
2019-05-07T04:28:16.413Z,20.10
2019-05-07T04:29:16.393Z,19.70
2019-05-07T04:30:16.363Z,21.10
2019-05-07T04:31:16.342Z,20.30
2019-05-07T04:32:16.320Z,20.70
2019-05-07T04:33:16.305Z,21.40
2019-05-07T04:34:16.272Z,21.30
2019-05-07T04:35:16.249Z,20.90
2019-05-07T04:36:16.237Z,21.50
2019-05-07T04:37:16.204Z,22.80
2019-05-07T04:38:16.179Z,21.50
2019-05-07T04:39:16.153Z,23.40
2019-05-07T04:40:16.134Z,22.00
2019-05-07T04:41:16.117Z,21.70
2019-05-07T04:42:16.085Z,22.30
2019-05-07T04:43:16.063Z,22.00
2019-05-07T04:44:16.051Z,22.40
2019-05-07T04:45:16.016Z,22.20
2019-05-07T04:46:15.995Z,20.80
2019-05-07T04:47:32.757Z,21.00
2019-05-07T04:48:15.952Z,22.00
2019-05-07T04:49:15.934Z,21.50
2019-05-07T04:50:33.091Z,23.50
2019-05-07T04:51:15.876Z,21.40
2019-05-07T04:52:15.854Z,22.20
2019-05-07T04:53:15.834Z,20.90
2019-05-07T04:54:15.807Z,21.60
2019-05-07T04:55:15.783Z,20.90
2019-05-07T04:56:15.770Z,21.50
2019-05-07T04:57:15.739Z,21.90
2019-05-07T04:58:15.733Z,22.10
2019-05-07T04:59:15.700Z,22.80
2019-05-07T05:00:15.697Z,21.30
2019-05-07T05:01:15.647Z,21.00
2019-05-07T05:02:15.620Z,22.00
2019-05-07T05:03:15.599Z,20.80
2019-05-07T05:04:25.509Z,21.70
2019-05-07T05:05:15.555Z,21.00
2019-05-07T05:06:15.529Z,21.20
2019-05-07T05:07:15.504Z,21.00
2019-05-07T05:08:15.491Z,21.70
2019-05-07T05:09:15.472Z,20.90
2019-05-07T05:10:15.464Z,21.40
2019-05-07T05:11:15.424Z,21.30
2019-05-07T05:12:15.402Z,21.40
2019-05-07T05:13:15.375Z,22.00
2019-05-07T05:14:15.342Z,20.80
2019-05-07T05:15:15.325Z,19.50
2019-05-07T05:16:15.295Z,20.50
2019-05-07T05:17:15.272Z,20.20
2019-05-07T05:18:15.247Z,20.40
2019-05-07T05:19:15.226Z,20.20
2019-05-07T05:20:15.214Z,21.20
2019-05-07T05:21:15.184Z,21.30
2019-05-07T05:22:15.157Z,21.40
2019-05-07T05:23:15.135Z,20.70
2019-05-07T05:24:15.111Z,21.20
2019-05-07T05:25:15.093Z,21.00
2019-05-07T05:26:15.065Z,21.10
2019-05-07T05:27:15.041Z,20.90
2019-05-07T05:28:15.020Z,20.90
2019-05-07T05:29:15.000Z,20.90
2019-05-07T05:30:14.975Z,20.70
2019-05-07T05:31:14.955Z,21.00
2019-05-07T05:32:14.932Z,20.80
2019-05-07T05:33:14.924Z,21.60
2019-05-07T05:34:14.878Z,21.40
2019-05-07T05:35:14.856Z,22.30
2019-05-07T05:36:14.835Z,20.20
2019-05-07T05:37:14.811Z,21.70
2019-05-07T05:38:14.785Z,22.00
2019-05-07T05:39:14.764Z,20.40
2019-05-07T05:40:14.739Z,21.90
2019-05-07T05:41:14.716Z,20.70
2019-05-07T05:42:14.694Z,20.30
2019-05-07T05:43:14.679Z,20.50
2019-05-07T05:44:14.649Z,21.10
2019-05-07T05:45:14.638Z,20.40
2019-05-07T05:46:14.605Z,20.90
2019-05-07T05:47:14.578Z,20.70
2019-05-07T05:48:14.562Z,21.30
2019-05-07T05:49:14.536Z,20.20
2019-05-07T05:50:14.511Z,20.20
2019-05-07T05:51:14.494Z,20.00
2019-05-07T05:52:14.472Z,21.00
2019-05-07T05:53:14.440Z,20.90
2019-05-07T05:54:14.423Z,20.70
2019-05-07T05:55:14.403Z,20.70
2019-05-07T05:56:14.376Z,20.10
2019-05-07T05:57:14.353Z,19.80
2019-05-07T05:58:14.325Z,20.10
2019-05-07T05:59:24.057Z,20.60
2019-05-07T06:00:14.282Z,20.50
2019-05-07T06:01:14.259Z,21.00
2019-05-07T06:02:14.233Z,21.90
2019-05-07T06:03:14.211Z,20.10
2019-05-07T06:04:14.192Z,21.50
2019-05-07T06:05:14.177Z,21.20
2019-05-07T06:06:14.143Z,21.50
2019-05-07T06:07:14.876Z,21.00
2019-05-07T06:08:17.458Z,20.60
2019-05-07T06:09:14.075Z,21.10
2019-05-07T06:10:14.054Z,20.90
2019-05-07T06:11:14.033Z,20.80
2019-05-07T06:12:14.005Z,20.40
2019-05-07T06:13:13.982Z,19.80
2019-05-07T06:14:13.960Z,20.20
2019-05-07T06:15:13.938Z,20.50
2019-05-07T06:16:13.915Z,20.70
2019-05-07T06:17:13.890Z,19.80
2019-05-07T06:18:20.969Z,20.80
2019-05-07T06:19:13.846Z,20.50
2019-05-07T06:20:13.823Z,19.90
2019-05-07T06:21:13.798Z,20.00
2019-05-07T06:22:16.599Z,20.10
2019-05-07T06:23:13.752Z,20.30
2019-05-07T06:24:13.732Z,21.10
2019-05-07T06:25:14.928Z,19.90
2019-05-07T06:26:13.684Z,19.50
2019-05-07T06:27:13.661Z,19.90
2019-05-07T06:28:13.640Z,18.20
2019-05-07T06:29:13.622Z,19.40
2019-05-07T06:30:13.595Z,17.70
2019-05-07T06:31:13.570Z,19.40
2019-05-07T06:32:13.554Z,18.40
2019-05-07T06:33:13.534Z,18.10
2019-05-07T06:34:13.503Z,18.60
2019-05-07T06:35:13.482Z,18.90
2019-05-07T06:36:13.457Z,19.70
2019-05-07T06:37:13.452Z,19.40
2019-05-07T06:38:13.414Z,19.20
2019-05-07T06:39:13.391Z,18.60
2019-05-07T06:40:13.369Z,19.60
2019-05-07T06:41:13.344Z,18.80
2019-05-07T06:42:13.322Z,20.00
2019-05-07T06:43:13.301Z,19.80
2019-05-07T06:44:13.277Z,20.40
2019-05-07T06:45:13.256Z,19.30
2019-05-07T06:46:13.249Z,19.10
2019-05-07T06:47:13.232Z,18.30
2019-05-07T06:48:13.193Z,18.10
2019-05-07T06:49:13.166Z,19.40
2019-05-07T06:50:13.144Z,18.30
2019-05-07T06:51:13.120Z,18.00
2019-05-07T06:52:13.106Z,17.50
2019-05-07T06:53:13.083Z,18.70
2019-05-07T06:54:13.102Z,17.30
2019-05-07T06:55:13.030Z,18.10
2019-05-07T06:56:13.013Z,16.90
2019-05-07T06:57:13.138Z,17.40
2019-05-07T06:58:12.962Z,18.80
2019-05-07T06:59:13.082Z,17.70
2019-05-07T07:00:12.915Z,17.70
2019-05-07T07:01:12.893Z,16.40
2019-05-07T07:02:12.874Z,15.80
2019-05-07T07:03:12.874Z,16.60
2019-05-07T07:04:13.074Z,18.10
2019-05-07T07:05:12.804Z,16.00
2019-05-07T07:06:12.783Z,15.90
2019-05-07T07:07:26.095Z,17.70
2019-05-07T07:08:12.737Z,16.60
2019-05-07T07:09:12.756Z,16.40
2019-05-07T07:10:12.689Z,14.80
2019-05-07T07:11:12.950Z,15.60
2019-05-07T07:12:12.980Z,14.50
2019-05-07T07:13:12.621Z,14.20
2019-05-07T07:14:12.603Z,13.80
2019-05-07T07:15:12.575Z,15.60
2019-05-07T07:16:12.789Z,14.80
2019-05-07T07:17:13.034Z,14.40
2019-05-07T07:18:12.508Z,12.80
2019-05-07T07:19:12.567Z,15.70
2019-05-07T07:20:12.792Z,13.70
2019-05-07T07:21:12.512Z,14.70
2019-05-07T07:22:13.098Z,15.10
2019-05-07T07:23:12.404Z,16.90
2019-05-07T07:24:12.798Z,13.90
2019-05-07T07:25:12.360Z,14.30
2019-05-07T07:26:12.701Z,15.40
2019-05-07T07:27:13.142Z,13.60
2019-05-07T07:28:12.488Z,14.90
2019-05-07T07:29:12.800Z,14.20
2019-05-07T07:30:12.793Z,15.60
2019-05-07T07:31:12.997Z,14.80
2019-05-07T07:32:12.760Z,16.70
2019-05-07T07:33:12.243Z,15.00
2019-05-07T07:34:12.998Z,16.50
2019-05-07T07:35:12.964Z,15.50
2019-05-07T07:36:12.106Z,17.50
2019-05-07T07:37:15.547Z,14.70
2019-05-07T07:38:12.063Z,16.00
2019-05-07T07:39:12.678Z,14.80
2019-05-07T07:40:12.856Z,15.00
2019-05-07T07:41:12.743Z,14.60
2019-05-07T07:42:12.448Z,14.00
2019-05-07T07:43:12.889Z,13.90
2019-05-07T07:44:13.224Z,15.50
2019-05-07T07:45:12.437Z,14.90
2019-05-07T07:46:13.154Z,15.10
2019-05-07T07:47:12.882Z,14.70
2019-05-07T07:48:13.186Z,16.80
2019-05-07T07:49:14.959Z,15.00
2019-05-07T07:50:12.950Z,16.70
2019-05-07T07:51:13.789Z,13.50
2019-05-07T07:52:12.310Z,15.00
2019-05-07T07:53:12.982Z,13.50
2019-05-07T07:54:13.085Z,13.20
2019-05-07T07:55:12.724Z,16.00
2019-05-07T07:56:12.142Z,13.50
2019-05-07T07:57:12.641Z,13.60
2019-05-07T07:58:12.096Z,15.80
2019-05-07T07:59:12.620Z,13.50
2019-05-07T08:00:11.946Z,14.80
2019-05-07T08:01:12.255Z,16.60
2019-05-07T08:02:12.383Z,15.50
2019-05-07T08:03:13.395Z,14.00
2019-05-07T08:04:12.244Z,15.10
2019-05-07T08:05:12.546Z,13.30
2019-05-07T08:06:11.943Z,14.00
2019-05-07T08:07:12.378Z,15.40
2019-05-07T08:08:12.837Z,14.70
2019-05-07T08:09:12.951Z,13.30
2019-05-07T08:10:12.882Z,13.00
2019-05-07T08:11:12.671Z,13.90
2019-05-07T08:12:12.774Z,14.30
2019-05-07T08:13:12.257Z,14.10
2019-05-07T08:14:12.613Z,13.50
2019-05-07T08:15:18.210Z,13.40
2019-05-07T08:16:12.964Z,12.20
2019-05-07T08:17:13.011Z,15.00
2019-05-07T08:18:11.994Z,12.20
2019-05-07T08:19:21.372Z,12.70
2019-05-07T08:20:12.786Z,12.10
2019-05-07T08:21:12.039Z,11.80
2019-05-07T08:22:12.030Z,15.30
2019-05-07T08:23:12.216Z,11.90
2019-05-07T08:24:12.280Z,9.80
2019-05-07T08:25:12.523Z,13.70
2019-05-07T08:26:12.716Z,15.60
2019-05-07T08:27:12.851Z,12.60
2019-05-07T08:28:11.932Z,12.90
2019-05-07T08:29:11.934Z,10.60
2019-05-07T08:30:11.862Z,10.00
2019-05-07T08:31:12.030Z,13.30
2019-05-07T08:32:12.612Z,13.90
2019-05-07T08:33:14.633Z,10.90
2019-05-07T08:34:14.004Z,14.80
2019-05-07T08:35:14.102Z,12.00
2019-05-07T08:36:14.293Z,11.30
2019-05-07T08:37:12.025Z,12.10
2019-05-07T08:38:12.635Z,10.90
2019-05-07T08:39:12.831Z,13.00
2019-05-07T08:40:12.850Z,12.50
2019-05-07T08:41:12.000Z,14.30
2019-05-07T08:42:12.268Z,12.00
2019-05-07T08:43:12.565Z,12.00
2019-05-07T08:44:14.618Z,10.70
2019-05-07T08:45:11.965Z,14.10
2019-05-07T08:46:11.966Z,13.00
2019-05-07T08:47:12.182Z,10.30
2019-05-07T08:48:12.491Z,13.10
2019-05-07T08:49:12.129Z,10.40
2019-05-07T08:50:11.844Z,10.60
2019-05-07T08:51:11.928Z,14.80
2019-05-07T08:52:12.035Z,13.10
2019-05-07T08:53:10.407Z,11.80
2019-05-07T08:54:12.367Z,11.10
2019-05-07T08:55:12.412Z,11.40
2019-05-07T08:56:12.294Z,11.40
2019-05-07T08:57:12.190Z,10.70
2019-05-07T08:58:12.071Z,12.50
2019-05-07T08:59:12.258Z,12.80
2019-05-07T09:00:12.290Z,12.10
2019-05-07T09:01:11.878Z,14.40
2019-05-07T09:02:12.358Z,7.90
2019-05-07T09:03:20.195Z,8.20
2019-05-07T09:04:10.174Z,7.40
2019-05-07T09:05:12.067Z,8.90
2019-05-07T09:06:11.693Z,8.30
2019-05-07T09:07:10.114Z,6.20
2019-05-07T09:08:10.093Z,9.00
2019-05-07T09:09:10.067Z,11.30
2019-05-07T09:10:10.043Z,8.90
2019-05-07T09:11:10.025Z,6.40
2019-05-07T09:12:12.188Z,6.80
2019-05-07T09:13:09.986Z,10.10
2019-05-07T09:14:12.221Z,8.30
2019-05-07T09:15:09.936Z,7.90
2019-05-07T09:16:09.913Z,8.20
2019-05-07T09:17:09.893Z,10.40
2019-05-07T09:18:09.873Z,8.80
2019-05-07T09:19:09.858Z,7.30
2019-05-07T09:20:09.838Z,7.20
2019-05-07T09:21:09.807Z,7.50
2019-05-07T09:22:09.796Z,9.40
2019-05-07T09:23:09.767Z,6.80
2019-05-07T09:24:11.943Z,6.20
2019-05-07T09:25:09.721Z,6.60
2019-05-07T09:26:09.702Z,7.20
2019-05-07T09:27:09.679Z,8.20
2019-05-07T09:28:11.784Z,7.60
2019-05-07T09:29:11.696Z,10.50
2019-05-07T09:30:09.613Z,6.20
2019-05-07T09:31:09.592Z,6.30
2019-05-07T09:32:11.962Z,8.70
2019-05-07T09:33:09.551Z,7.50
2019-05-07T09:34:11.678Z,8.60
2019-05-07T09:35:09.513Z,6.90
2019-05-07T09:36:09.487Z,6.60
2019-05-07T09:37:09.476Z,10.60
2019-05-07T09:38:09.446Z,7.20
2019-05-07T09:39:09.426Z,7.10
2019-05-07T09:40:09.399Z,7.00
2019-05-07T09:41:09.382Z,8.00
2019-05-07T09:42:09.357Z,8.40
2019-05-07T09:43:11.561Z,8.50
2019-05-07T09:44:09.320Z,10.30
2019-05-07T09:45:09.295Z,6.60
2019-05-07T09:46:09.274Z,8.30
2019-05-07T09:47:09.257Z,9.70
2019-05-07T09:48:09.231Z,8.20
2019-05-07T09:49:09.224Z,7.20
2019-05-07T09:50:09.193Z,7.80
2019-05-07T09:51:09.167Z,8.60
2019-05-07T09:52:09.146Z,8.40
2019-05-07T09:53:09.126Z,8.10
2019-05-07T09:54:09.104Z,8.10
2019-05-07T09:55:16.643Z,7.50
2019-05-07T09:56:09.062Z,8.20
2019-05-07T09:57:25.245Z,7.90
2019-05-07T09:58:09.021Z,7.00
2019-05-07T09:59:09.002Z,8.40
2019-05-07T10:00:08.981Z,6.70
2019-05-07T10:01:08.958Z,7.60
2019-05-07T10:02:08.941Z,7.50
2019-05-07T10:03:08.910Z,7.10
2019-05-07T10:04:08.892Z,7.70
2019-05-07T10:05:08.869Z,7.00
2019-05-07T10:06:08.848Z,8.30
2019-05-07T10:07:08.832Z,7.80
2019-05-07T10:08:08.804Z,7.80
2019-05-07T10:09:08.785Z,7.40
2019-05-07T10:10:08.769Z,6.50
2019-05-07T10:11:08.747Z,7.60
2019-05-07T10:12:08.724Z,7.20
2019-05-07T10:13:08.700Z,8.10
2019-05-07T10:14:08.676Z,11.70
2019-05-07T10:15:08.659Z,7.10
2019-05-07T10:16:08.638Z,7.40
2019-05-07T10:17:08.623Z,6.20
2019-05-07T10:18:08.594Z,7.20
2019-05-07T10:19:08.572Z,6.40
2019-05-07T10:20:19.273Z,7.70
2019-05-07T10:21:08.529Z,6.70
2019-05-07T10:22:08.515Z,8.60
2019-05-07T10:23:08.494Z,8.10
2019-05-07T10:24:08.468Z,7.90
2019-05-07T10:25:08.461Z,7.80
2019-05-07T10:26:08.427Z,6.60
2019-05-07T10:27:08.400Z,8.20
2019-05-07T10:28:08.383Z,7.50
2019-05-07T10:29:08.361Z,6.70
2019-05-07T10:30:08.340Z,7.60
2019-05-07T10:31:08.323Z,8.80
2019-05-07T10:32:08.307Z,7.70
2019-05-07T10:33:08.276Z,7.30
2019-05-07T10:34:08.255Z,7.80
2019-05-07T10:35:08.248Z,7.90
2019-05-07T10:36:08.213Z,7.70
2019-05-07T10:37:08.188Z,7.00
2019-05-07T10:38:08.166Z,7.30
2019-05-07T10:39:08.145Z,7.90
2019-05-07T10:40:08.127Z,6.60
2019-05-07T10:41:08.105Z,6.90
2019-05-07T10:42:08.086Z,7.90
2019-05-07T10:43:08.069Z,7.20
2019-05-07T10:44:08.044Z,7.20
2019-05-07T10:45:08.023Z,7.40
2019-05-07T10:46:07.999Z,7.20
2019-05-07T10:47:07.979Z,7.90
2019-05-07T10:48:07.960Z,8.00
2019-05-07T10:49:07.937Z,7.20
2019-05-07T10:50:07.918Z,8.30
2019-05-07T10:51:07.898Z,6.80
2019-05-07T10:52:07.878Z,6.00
2019-05-07T10:53:07.854Z,7.90
2019-05-07T10:54:07.832Z,6.10
2019-05-07T10:55:07.813Z,8.70
2019-05-07T10:56:07.797Z,6.00
2019-05-07T10:57:07.780Z,6.20
2019-05-07T10:58:07.754Z,6.70
2019-05-07T10:59:07.729Z,7.90
2019-05-07T11:00:07.710Z,6.80
2019-05-07T11:01:07.689Z,7.70
2019-05-07T11:02:07.668Z,11.30
2019-05-07T11:03:07.647Z,7.40
2019-05-07T11:04:07.625Z,6.90
2019-05-07T11:05:07.607Z,5.80
2019-05-07T11:06:07.592Z,8.80
2019-05-07T11:07:07.575Z,6.90
2019-05-07T11:08:07.543Z,5.40
2019-05-07T11:09:07.530Z,6.10
2019-05-07T11:10:07.505Z,5.90
2019-05-07T11:11:07.490Z,6.80
2019-05-07T11:12:07.466Z,7.40
2019-05-07T11:13:07.448Z,5.70
2019-05-07T11:14:07.428Z,7.00
2019-05-07T11:15:07.397Z,6.00
2019-05-07T11:16:07.378Z,6.50
2019-05-07T11:17:07.367Z,7.40
2019-05-07T11:18:07.341Z,6.20
2019-05-07T11:19:07.327Z,5.50
2019-05-07T11:20:07.292Z,5.80
2019-05-07T11:21:07.275Z,5.50
2019-05-07T11:22:07.250Z,6.80
2019-05-07T11:23:07.229Z,7.90
2019-05-07T11:24:07.210Z,5.40
2019-05-07T11:25:07.188Z,6.70
2019-05-07T11:26:07.165Z,5.90
2019-05-07T11:27:07.153Z,6.50
2019-05-07T11:28:07.126Z,6.80
2019-05-07T11:29:07.102Z,7.90
2019-05-07T11:30:07.080Z,5.90
2019-05-07T11:31:07.063Z,7.20
2019-05-07T11:32:07.044Z,8.40
2019-05-07T11:33:07.020Z,7.70
2019-05-07T11:34:07.006Z,7.10
2019-05-07T11:35:06.980Z,7.90
2019-05-07T11:36:06.968Z,9.60
2019-05-07T11:37:06.940Z,6.20
2019-05-07T11:38:20.431Z,9.50
2019-05-07T11:39:06.900Z,8.50
2019-05-07T11:40:06.872Z,7.10
2019-05-07T11:41:06.851Z,6.70
2019-05-07T11:42:06.834Z,7.30
2019-05-07T11:43:06.808Z,6.70
2019-05-07T11:44:06.787Z,8.30
2019-05-07T11:45:06.766Z,6.30
2019-05-07T11:46:06.745Z,6.30
2019-05-07T11:47:06.722Z,6.30
2019-05-07T11:48:06.701Z,6.70
2019-05-07T11:49:06.689Z,7.50
2019-05-07T11:50:06.665Z,6.70
2019-05-07T11:51:06.643Z,6.80
2019-05-07T11:52:06.616Z,6.70
2019-05-07T11:53:06.594Z,8.30
2019-05-07T11:54:06.572Z,6.90
2019-05-07T11:55:06.552Z,6.90
2019-05-07T11:56:06.538Z,6.90
2019-05-07T11:57:06.515Z,6.70
2019-05-07T11:58:06.500Z,6.80
2019-05-07T11:59:06.465Z,7.30
2019-05-07T12:00:06.457Z,7.70
2019-05-07T12:01:06.431Z,7.20
2019-05-07T12:02:06.406Z,7.60
2019-05-07T12:03:06.381Z,8.00
2019-05-07T12:04:06.369Z,6.90
2019-05-07T12:05:06.349Z,7.60
2019-05-07T12:06:06.320Z,8.30
2019-05-07T12:07:06.301Z,8.00
2019-05-07T12:08:06.276Z,8.30
2019-05-07T12:09:06.262Z,8.90
2019-05-07T12:10:06.243Z,7.70
2019-05-07T12:11:06.222Z,6.90
2019-05-07T12:12:06.212Z,7.30
2019-05-07T12:13:06.171Z,8.70
2019-05-07T12:14:06.152Z,10.60
2019-05-07T12:15:06.133Z,7.90
2019-05-07T12:16:06.115Z,8.10
2019-05-07T12:17:06.091Z,8.10
2019-05-07T12:18:06.070Z,7.50
2019-05-07T12:19:06.049Z,8.30
2019-05-07T12:20:06.038Z,8.10
2019-05-07T12:21:17.416Z,8.30
2019-05-07T12:22:05.988Z,9.00
2019-05-07T12:23:05.979Z,9.10
2019-05-07T12:24:05.946Z,9.10
2019-05-07T12:25:05.924Z,9.10
2019-05-07T12:26:06.350Z,9.00
2019-05-07T12:27:05.879Z,9.50
2019-05-07T12:28:05.863Z,9.90
2019-05-07T12:29:05.846Z,9.30
2019-05-07T12:30:05.877Z,9.50
2019-05-07T12:31:05.797Z,10.00
2019-05-07T12:32:05.787Z,9.90
2019-05-07T12:33:05.771Z,9.40
2019-05-07T12:34:05.743Z,9.80
2019-05-07T12:35:05.714Z,10.30
2019-05-07T12:36:05.694Z,10.50
2019-05-07T12:37:05.674Z,10.40
2019-05-07T12:38:05.653Z,10.80
2019-05-07T12:39:05.637Z,11.30
2019-05-07T12:40:05.613Z,11.10
2019-05-07T12:41:05.620Z,10.50
2019-05-07T12:42:05.574Z,10.40
2019-05-07T12:43:05.560Z,10.10
2019-05-07T12:44:05.538Z,10.70
2019-05-07T12:45:05.513Z,10.40
2019-05-07T12:46:05.491Z,9.80
2019-05-07T12:47:05.473Z,11.10
2019-05-07T12:48:05.453Z,12.70
2019-05-07T12:49:05.439Z,11.60
2019-05-07T12:50:05.450Z,12.50
2019-05-07T12:51:05.388Z,12.60
2019-05-07T12:52:05.370Z,12.70
2019-05-07T12:53:05.355Z,13.80
2019-05-07T12:54:05.333Z,10.80
2019-05-07T12:55:05.308Z,11.00
2019-05-07T12:56:05.295Z,11.30
2019-05-07T12:57:05.267Z,12.20
2019-05-07T12:58:05.245Z,12.40
2019-05-07T12:59:05.230Z,13.40